Time;durP1;ratioP1;P1;durP2;ratioP2;P2;SDS_P1;SDS_P2;PMS_P1;PMS_P2;Temp;Humidity;BMP_temperature;BMP_pressure;BME280_temperature;BME280_humidity;BME280_pressure;Samples;Min_cycle;Max_cycle;Signal;HPM_P1;HPM_P2
2024/02/27 00:00:14;;;;;;;54.80;16.73;;;;;;;3.73;100.00;101140.56;5003417;28;20465;-77
2024/02/27 00:02:40;;;;;;;66.78;19.40;;;;;;;3.74;100.00;101135.13;4987022;28;20039;-73
2024/02/27 00:05:06;;;;;;;69.70;20.10;;;;;;;3.82;100.00;101142.53;4987975;28;20030;-76
2024/02/27 00:07:32;;;;;;;102.03;21.58;;;;;;;3.73;100.00;101130.81;4986976;28;20034;-75
2024/02/27 00:09:58;;;;;;;74.97;19.95;;;;;;;3.76;100.00;101135.88;4986853;28;20523;-76
2024/02/27 00:12:25;;;;;;;65.53;18.88;;;;;;;3.81;100.00;101143.47;4986872;28;20026;-75
2024/02/27 00:14:52;;;;;;;76.18;19.85;;;;;;;3.74;100.00;101137.78;4990746;28;20034;-77
2024/02/27 00:17:18;;;;;;;78.22;20.63;;;;;;;3.77;100.00;101136.75;4987977;28;20034;-75
2024/02/27 00:19:43;;;;;;;70.10;20.42;;;;;;;3.87;100.00;101148.34;4987911;28;20030;-76
2024/02/27 00:22:08;;;;;;;85.85;20.98;;;;;;;3.87;100.00;101152.78;4988230;28;20129;-76
2024/02/27 00:24:34;;;;;;;80.13;23.25;;;;;;;3.98;100.00;101147.53;4987079;28;20030;-75
2024/02/27 00:26:59;;;;;;;61.88;21.13;;;;;;;3.88;100.00;101138.59;4986038;28;20042;-77
2024/02/27 00:29:25;;;;;;;104.10;21.53;;;;;;;3.77;100.00;101132.31;4970773;28;20104;-74
2024/02/27 00:31:50;;;;;;;54.33;18.50;;;;;;;3.63;100.00;101129.78;4993490;28;20293;-75
2024/02/27 00:34:16;;;;;;;83.85;23.58;;;;;;;3.63;100.00;101139.50;4989937;28;20023;-76
2024/02/27 00:36:41;;;;;;;79.13;23.67;;;;;;;3.56;100.00;101144.38;4970414;28;20088;-77
2024/02/27 00:39:07;;;;;;;121.97;26.13;;;;;;;3.57;100.00;101153.97;4987066;28;20036;-77
2024/02/27 00:41:38;;;;;;;145.35;27.35;;;;;;;3.41;100.00;101154.19;4987795;28;20429;-75
2024/02/27 00:44:05;;;;;;;77.85;23.80;;;;;;;3.56;100.00;101168.16;4986674;28;20439;-75
2024/02/27 00:46:31;;;;;;;114.90;24.83;;;;;;;3.52;100.00;101174.59;4987555;28;20038;-77
2024/02/27 00:48:56;;;;;;;73.40;24.80;;;;;;;3.52;100.00;101170.13;4987666;28;20560;-76
2024/02/27 00:51:21;;;;;;;170.27;28.38;;;;;;;3.48;100.00;101162.53;4986240;28;20053;-77
2024/02/27 00:53:47;;;;;;;68.90;22.50;;;;;;;3.71;100.00;101190.81;4986293;28;20105;-77
2024/02/27 00:56:12;;;;;;;75.95;25.33;;;;;;;3.84;100.00;101187.31;4987383;28;20030;-75
2024/02/27 00:58:38;;;;;;;100.13;28.23;;;;;;;3.72;100.00;101179.31;4986337;28;20042;-77
2024/02/27 01:01:03;;;;;;;103.63;28.52;;;;;;;3.70;100.00;101178.59;4987633;28;20034;-77
2024/02/27 01:03:29;;;;;;;77.85;23.25;;;;;;;3.60;100.00;101177.53;5002394;28;20077;-77
2024/02/27 01:05:54;;;;;;;77.15;25.58;;;;;;;3.65;100.00;101201.81;4990258;28;20168;-76
2024/02/27 01:08:19;;;;;;;80.30;25.83;;;;;;;3.60;100.00;101188.09;4990175;28;20118;-76
2024/02/27 01:10:45;;;;;;;53.38;23.08;;;;;;;3.61;100.00;101183.66;4987454;28;20097;-74
2024/02/27 01:13:10;;;;;;;63.73;23.07;;;;;;;3.58;100.00;101180.28;5002526;28;20034;-74
2024/02/27 01:15:35;;;;;;;87.40;25.77;;;;;;;3.61;100.00;101175.75;4986192;28;20285;-77
2024/02/27 01:18:02;;;;;;;60.63;24.08;;;;;;;3.59;100.00;101175.84;4987186;28;20038;-76
2024/02/27 01:20:27;;;;;;;;;;;;;;;3.71;100.00;101180.25;4970832;28;20401;-77
2024/02/27 01:22:52;;;;;;;62.10;21.95;;;;;;;3.62;100.00;101172.13;4991176;28;19917;-75
2024/02/27 01:25:18;;;;;;;50.47;22.08;;;;;;;3.69;100.00;101182.16;4990147;28;20040;-77
2024/02/27 01:27:43;;;;;;;77.85;24.10;;;;;;;3.65;100.00;101170.13;4988377;28;20148;-77
2024/02/27 01:30:10;;;;;;;55.53;25.47;;;;;;;3.65;100.00;101170.13;4992894;28;20039;-75
2024/02/27 01:32:36;;;;;;;54.20;22.33;;;;;;;3.55;100.00;101163.78;4969612;28;20304;-77
2024/02/27 01:35:01;;;;;;;45.28;20.90;;;;;;;3.61;100.00;101170.47;4986705;28;20470;-75
2024/02/27 01:37:26;;;;;;;50.20;23.08;;;;;;;3.72;100.00;101186.38;4985522;28;20034;-76
2024/02/27 01:39:52;;;;;;;51.75;22.38;;;;;;;3.70;100.00;101168.03;4985387;28;20129;-77
2024/02/27 01:42:18;;;;;;;50.67;22.30;;;;;;;3.77;100.00;101176.34;5002158;28;20034;-75
2024/02/27 01:44:48;;;;;;;;;;;;;;;3.88;100.00;101181.72;4986070;28;20042;-76
2024/02/27 01:47:14;;;;;;;43.85;20.25;;;;;;;3.85;100.00;101173.16;4979012;28;20067;-77
2024/02/27 01:49:41;;;;;;;45.97;21.70;;;;;;;3.86;100.00;101174.84;5002045;28;21102;-75
2024/02/27 01:52:07;;;;;;;56.53;24.33;;;;;;;3.92;100.00;101167.34;5001846;28;20057;-76
2024/02/27 01:54:33;;;;;;;51.00;22.38;;;;;;;3.77;100.00;101156.06;4989844;28;20112;-76
2024/02/27 01:56:59;;;;;;;61.88;24.23;;;;;;;3.87;100.00;101168.63;4986258;28;20479;-76
2024/02/27 01:59:24;;;;;;;55.65;23.92;;;;;;;3.94;100.00;101169.88;4985436;28;20034;-76
2024/02/27 02:01:52;;;;;;;56.63;27.15;;;;;;;3.85;100.00;101162.59;4985565;28;20101;-73
2024/02/27 02:04:17;;;;;;;58.13;26.02;;;;;;;3.88;100.00;101172.94;4986582;28;20045;-76
2024/02/27 02:06:44;;;;;;;50.95;22.55;;;;;;;3.86;100.00;101157.19;4989087;28;20030;-77
2024/02/27 02:09:10;;;;;;;42.13;21.23;;;;;;;3.66;100.00;101155.13;4986512;28;20076;-74
2024/02/27 02:11:35;;;;;;;38.33;20.20;;;;;;;3.69;100.00;101153.09;4987014;28;20050;-76
2024/02/27 02:14:02;;;;;;;36.22;18.40;;;;;;;3.64;100.00;101155.22;4990873;28;20022;-77
2024/02/27 02:16:27;;;;;;;38.63;19.23;;;;;;;3.68;100.00;101147.97;4986024;28;20030;-76
2024/02/27 02:18:53;;;;;;;43.83;19.17;;;;;;;3.60;100.00;101151.13;4985209;28;20026;-77
2024/02/27 02:21:18;;;;;;;42.75;19.88;;;;;;;3.54;100.00;101141.00;4989274;28;20043;-75
2024/02/27 02:23:44;;;;;;;43.10;20.55;;;;;;;3.57;100.00;101151.34;4986265;28;20089;-77
2024/02/27 02:26:10;;;;;;;;;;;;;;;3.65;100.00;101156.91;4985099;28;20070;-74
2024/02/27 02:28:35;;;;;;;41.80;19.92;;;;;;;3.56;100.00;101150.50;4989213;28;19941;-76
2024/02/27 02:31:01;;;;;;;35.58;17.50;;;;;;;3.21;100.00;101126.56;4989130;28;20062;-77
2024/02/27 02:33:27;;;;;;;42.47;19.38;;;;;;;3.40;100.00;101154.31;4986555;28;20520;-75
2024/02/27 02:35:52;;;;;;;;;;;;;;;3.57;100.00;101177.75;4988612;28;20035;-77
2024/02/27 02:38:18;;;;;;;34.13;17.02;;;;;;;3.44;100.00;101153.13;4986091;28;19916;-77
2024/02/27 02:40:43;;;;;;;49.47;21.35;;;;;;;3.32;100.00;101146.91;4985958;28;20508;-76
2024/02/27 02:43:09;;;;;;;44.33;21.90;;;;;;;3.35;100.00;101166.03;4986006;28;20792;-77
2024/02/27 02:45:34;;;;;;;44.25;19.88;;;;;;;3.50;100.00;101181.75;4985857;28;20323;-76
2024/02/27 02:47:59;;;;;;;45.35;23.17;;;;;;;3.33;100.00;101177.66;4989696;28;20045;-73
2024/02/27 02:50:28;;;;;;;47.15;22.30;;;;;;;3.33;100.00;101186.41;4988081;28;20042;-74
2024/02/27 02:52:53;;;;;;;40.03;20.88;;;;;;;3.58;100.00;101203.19;4997486;28;20053;-77
2024/02/27 02:55:18;;;;;;;33.65;16.75;;;;;;;3.40;100.00;101184.19;5008006;28;20030;-75
2024/02/27 02:57:44;;;;;;;32.47;17.23;;;;;;;3.45;100.00;101178.59;5007919;28;20120;-76
2024/02/27 03:00:10;;;;;;;36.90;17.53;;;;;;;3.35;100.00;101184.50;5007601;28;20041;-74
2024/02/27 03:02:35;;;;;;;33.70;16.90;;;;;;;3.54;100.00;101193.81;5009066;28;20974;-75
2024/02/27 03:05:00;;;;;;;34.60;17.95;;;;;;;3.20;100.00;101159.16;5008995;28;20473;-77
2024/02/27 03:07:26;;;;;;;32.97;17.23;;;;;;;3.45;100.00;101190.00;5008736;28;20685;-76
2024/02/27 03:09:51;;;;;;;29.38;15.95;;;;;;;3.37;100.00;101177.34;5008409;28;20551;-76
2024/02/27 03:12:18;;;;;;;25.15;13.90;;;;;;;3.53;100.00;101187.66;5009240;28;20048;-76
2024/02/27 03:14:46;;;;;;;28.70;15.38;;;;;;;3.58;100.00;101187.34;5024649;28;20025;-76
2024/02/27 03:17:16;;;;;;;35.78;17.90;;;;;;;3.47;100.00;101161.69;5008447;28;20480;-76
2024/02/27 03:19:42;;;;;;;31.98;15.68;;;;;;;3.57;100.00;101168.00;4999673;28;20261;-76
2024/02/27 03:22:09;;;;;;;28.38;15.80;;;;;;;3.55;100.00;101158.50;5008578;28;20474;-75
2024/02/27 03:24:35;;;;;;;31.30;17.23;;;;;;;3.64;100.00;101168.44;5006895;28;20026;-76
2024/02/27 03:27:00;;;;;;;31.02;16.85;;;;;;;3.73;100.00;101172.25;5007466;28;20045;-75
2024/02/27 03:29:26;;;;;;;28.83;15.35;;;;;;;3.51;100.00;101151.75;5008396;28;20029;-76
2024/02/27 03:31:51;;;;;;;27.48;15.75;;;;;;;3.58;100.00;101164.44;4990762;28;20084;-77
2024/02/27 03:34:17;;;;;;;23.25;13.70;;;;;;;3.56;100.00;101157.59;5008415;28;20084;-77
2024/02/27 03:36:42;;;;;;;19.87;11.37;;;;;;;3.28;100.00;101143.66;4978907;28;20053;-77
2024/02/27 03:39:07;;;;;;;21.17;11.73;;;;;;;3.42;100.00;101162.94;4999006;28;20491;-76
2024/02/27 03:41:33;;;;;;;20.98;11.90;;;;;;;3.35;100.00;101150.19;5008473;28;20280;-77
2024/02/27 03:43:58;;;;;;;23.08;11.68;;;;;;;3.49;100.00;101159.81;5007053;28;20050;-77
2024/02/27 03:46:23;;;;;;;20.30;11.83;;;;;;;3.49;100.00;101156.28;5008017;28;20018;-75
2024/02/27 03:48:49;;;;;;;19.83;11.43;;;;;;;3.54;100.00;101148.91;5008556;28;20284;-77
2024/02/27 03:51:14;;;;;;;19.85;12.65;;;;;;;3.51;100.00;101149.13;4981495;28;20072;-73
2024/02/27 03:53:39;;;;;;;21.58;11.13;;;;;;;3.55;100.00;101154.06;5007014;28;20402;-74
2024/02/27 03:56:05;;;;;;;21.10;11.50;;;;;;;3.52;100.00;101156.94;5007766;28;20124;-76
2024/02/27 03:58:33;;;;;;;18.35;11.40;;;;;;;3.58;100.00;101160.94;5007936;28;20076;-77
2024/02/27 04:00:58;;;;;;;17.60;10.50;;;;;;;3.38;100.00;101131.50;5005307;28;20042;-75
2024/02/27 04:03:24;;;;;;;18.67;10.60;;;;;;;3.55;100.00;101150.59;5008029;28;20014;-76
2024/02/27 04:05:49;;;;;;;15.40;8.25;;;;;;;3.37;100.00;101127.19;5006514;28;20042;-75
2024/02/27 04:08:14;;;;;;;16.00;10.17;;;;;;;3.31;100.00;101124.97;5006345;28;20117;-73
2024/02/27 04:10:40;;;;;;;19.73;11.05;;;;;;;3.52;100.00;101148.19;5002941;28;20301;-75
2024/02/27 04:13:05;;;;;;;18.52;10.82;;;;;;;3.28;100.00;101130.47;4999622;28;20053;-77
2024/02/27 04:15:31;;;;;;;21.20;11.50;;;;;;;3.32;100.00;101147.75;5007395;28;20037;-77
2024/02/27 04:17:57;;;;;;;17.03;11.37;;;;;;;3.37;100.00;101155.34;4985979;28;20030;-75
2024/02/27 04:20:23;;;;;;;18.38;11.05;;;;;;;3.39;100.00;101153.44;4989996;28;20026;-77
2024/02/27 04:22:49;;;;;;;19.25;11.07;;;;;;;3.38;100.00;101157.88;5007183;28;20033;-77
2024/02/27 04:25:14;;;;;;;;;;;;;;;3.46;100.00;101161.78;5007319;28;20041;-73
2024/02/27 04:27:40;;;;;;;20.92;11.10;;;;;;;3.40;100.00;101152.53;5005944;28;19917;-73
2024/02/27 04:30:06;;;;;;;16.67;10.93;;;;;;;3.51;100.00;101151.75;5001908;28;20065;-77
2024/02/27 04:32:33;;;;;;;18.08;11.60;;;;;;;3.53;100.00;101150.69;5002295;28;20026;-77
2024/02/27 04:34:58;;;;;;;22.50;12.63;;;;;;;3.67;100.00;101151.53;5006704;28;20033;-76
2024/02/27 04:37:23;;;;;;;20.38;11.80;;;;;;;3.67;100.00;101133.88;5007142;28;20642;-77
2024/02/27 04:39:49;;;;;;;24.77;11.77;;;;;;;3.73;100.00;101138.75;5005994;28;20042;-77
2024/02/27 04:42:14;;;;;;;20.92;12.25;;;;;;;3.65;100.00;101122.59;4997620;28;20099;-77
2024/02/27 04:44:40;;;;;;;24.58;12.88;;;;;;;3.78;100.00;101143.69;5005517;28;20374;-77
2024/02/27 04:47:05;;;;;;;17.50;11.52;;;;;;;3.65;100.00;101130.50;5005551;28;20121;-75
2024/02/27 04:49:32;;;;;;;22.85;12.65;;;;;;;3.48;100.00;101109.75;5007098;28;20469;-77
2024/02/27 04:51:57;;;;;;;18.77;10.52;;;;;;;3.60;100.00;101137.91;5005604;28;20057;-74
2024/02/27 04:54:23;;;;;;;19.25;10.48;;;;;;;3.62;100.00;101128.09;5003791;28;20061;-75
2024/02/27 04:56:48;;;;;;;17.15;9.05;;;;;;;3.35;100.00;101110.59;5005774;28;20084;-77
2024/02/27 04:59:14;;;;;;;15.53;9.63;;;;;;;3.36;100.00;101125.47;5005760;28;20030;-77
2024/02/27 05:01:40;;;;;;;16.92;9.25;;;;;;;3.47;100.00;101137.09;5006921;28;20670;-76
2024/02/27 05:04:06;;;;;;;13.20;9.07;;;;;;;3.38;100.00;101123.59;5006539;28;20046;-75
2024/02/27 05:06:31;;;;;;;15.85;9.20;;;;;;;3.49;100.00;101122.84;5006575;28;20029;-77
2024/02/27 05:08:57;;;;;;;17.83;10.95;;;;;;;3.58;100.00;101126.59;5006768;28;20033;-76
2024/02/27 05:11:22;;;;;;;15.30;9.57;;;;;;;3.64;100.00;101128.81;4988929;28;20727;-76
2024/02/27 05:13:47;;;;;;;18.30;11.80;;;;;;;3.65;100.00;101116.47;5005113;28;20430;-74
2024/02/27 05:16:13;;;;;;;20.40;12.57;;;;;;;3.65;100.00;101109.38;5005036;28;20041;-74
2024/02/27 05:18:39;;;;;;;19.43;12.73;;;;;;;3.31;100.00;101082.72;5006732;28;20037;-77
2024/02/27 05:21:04;;;;;;;20.85;11.32;;;;;;;3.47;100.00;101111.53;5004999;28;20356;-76
2024/02/27 05:23:30;;;;;;;16.65;10.20;;;;;;;3.39;100.00;101100.66;5006378;28;20074;-76
2024/02/27 05:25:56;;;;;;;14.77;8.82;;;;;;;3.52;100.00;101122.63;4996696;28;20516;-77
2024/02/27 05:28:21;;;;;;;12.85;8.30;;;;;;;3.46;100.00;101115.13;5006097;28;20025;-77
2024/02/27 05:30:46;;;;;;;16.98;9.40;;;;;;;3.67;100.00;101125.97;5006294;28;20608;-77
2024/02/27 05:33:12;;;;;;;13.57;8.67;;;;;;;3.60;100.00;101119.44;4980907;28;20099;-77
2024/02/27 05:35:37;;;;;;;13.30;8.70;;;;;;;3.53;100.00;101116.38;4988466;28;20292;-73
2024/02/27 05:38:03;;;;;;;14.75;9.75;;;;;;;3.65;100.00;101111.19;5005199;28;20548;-74
2024/02/27 05:40:29;;;;;;;20.40;10.85;;;;;;;3.74;100.00;101114.00;4988424;28;20125;-76
2024/02/27 05:42:55;;;;;;;15.05;10.13;;;;;;;3.74;100.00;101110.53;5001694;28;20077;-77
2024/02/27 05:45:20;;;;;;;22.40;11.68;;;;;;;3.87;100.00;101115.78;5005776;28;20069;-75
2024/02/27 05:47:46;;;;;;;18.85;11.32;;;;;;;3.73;100.00;101095.66;5004682;28;20121;-76
2024/02/27 05:50:11;;;;;;;15.90;9.00;;;;;;;3.69;100.00;101089.72;5004586;28;20116;-77
2024/02/27 05:52:37;;;;;;;16.48;8.77;;;;;;;3.72;100.00;101089.53;4988464;28;20041;-77
2024/02/27 05:55:03;;;;;;;13.68;8.90;;;;;;;3.77;100.00;101108.53;5005352;28;20052;-74
2024/02/27 05:57:29;;;;;;;13.15;8.50;;;;;;;3.71;100.00;101095.75;5005597;28;20026;-76
2024/02/27 05:59:54;;;;;;;11.70;7.78;;;;;;;3.81;100.00;101103.84;5005735;28;20370;-77
2024/02/27 06:02:19;;;;;;;11.80;8.15;;;;;;;3.89;100.00;101103.31;5005552;28;20030;-77
2024/02/27 06:04:45;;;;;;;14.40;9.07;;;;;;;3.85;100.00;101078.09;5000425;28;20030;-77
2024/02/27 06:07:11;;;;;;;15.07;9.17;;;;;;;3.57;100.00;101056.28;4987983;28;20029;-77
2024/02/27 06:09:37;;;;;;;13.38;9.20;;;;;;;3.77;100.00;101102.41;5000304;28;20292;-76
2024/02/27 06:12:03;;;;;;;12.95;8.50;;;;;;;3.63;100.00;101103.38;5005431;28;20036;-74
2024/02/27 06:14:29;;;;;;;13.68;8.25;;;;;;;3.69;100.00;101107.38;5004096;28;20073;-76
2024/02/27 06:16:55;;;;;;;13.05;8.52;;;;;;;3.76;100.00;101116.56;5004269;28;20545;-77
2024/02/27 06:19:22;;;;;;;13.65;8.15;;;;;;;3.74;100.00;101100.81;5005713;28;20026;-76
2024/02/27 06:24:31;;;;;;;17.13;8.77;;;;;;;3.69;100.00;101087.09;5004550;28;20044;-74
2024/02/27 06:26:56;;;;;;;13.20;8.10;;;;;;;3.79;100.00;101098.69;5009482;28;20037;-76
2024/02/27 06:29:22;;;;;;;14.82;8.80;;;;;;;3.80;100.00;101108.31;5005133;28;20551;-75
2024/02/27 06:31:47;;;;;;;11.45;7.60;;;;;;;3.56;100.00;101094.22;5000261;28;20049;-75
2024/02/27 06:34:12;;;;;;;14.20;8.90;;;;;;;3.54;100.00;101115.44;5008219;28;20057;-75
2024/02/27 06:36:38;;;;;;;15.32;9.00;;;;;;;3.57;100.00;101120.50;4999370;28;20409;-74
2024/02/27 06:39:03;;;;;;;15.53;8.53;;;;;;;3.67;100.00;101138.31;5008122;28;20483;-74
2024/02/27 06:41:29;;;;;;;18.00;9.23;;;;;;;3.66;100.00;101139.28;5009013;28;20335;-76
2024/02/27 06:43:54;;;;;;;19.38;9.30;;;;;;;3.77;100.00;101156.06;4991764;28;20032;-77
2024/02/27 06:46:19;;;;;;;16.67;9.13;;;;;;;3.61;100.00;101129.06;5008870;28;20042;-76
2024/02/27 06:48:45;;;;;;;15.73;9.57;;;;;;;3.69;100.00;101147.00;5009346;28;20033;-76
2024/02/27 06:51:10;;;;;;;12.70;7.60;;;;;;;3.62;100.00;101132.53;5008774;28;20042;-75
2024/02/27 06:53:36;;;;;;;18.75;10.73;;;;;;;3.67;100.00;101141.81;5003589;28;20092;-73
2024/02/27 06:56:01;;;;;;;14.68;10.38;;;;;;;3.66;100.00;101134.84;5007377;28;20041;-75
2024/02/27 06:58:27;;;;;;;15.35;8.80;;;;;;;3.75;100.00;101136.00;5003622;28;20034;-76
2024/02/27 07:00:52;;;;;;;15.93;9.45;;;;;;;3.56;100.00;101096.84;5007747;28;20022;-77
2024/02/27 07:03:18;;;;;;;14.95;7.88;;;;;;;3.56;100.00;101112.69;4999529;28;20038;-77
2024/02/27 07:05:43;;;;;;;12.00;7.53;;;;;;;3.54;100.00;101120.72;4987212;28;20068;-75
2024/02/27 07:08:10;;;;;;;13.63;7.93;;;;;;;3.55;100.00;101124.19;5003218;28;20289;-77
2024/02/27 07:10:38;;;;;;;12.68;8.88;;;;;;;3.52;100.00;101119.97;4999350;28;20033;-76
2024/02/27 07:13:06;;;;;;;15.48;8.82;;;;;;;3.13;100.00;101086.66;5005122;28;20092;-76
2024/02/27 07:15:32;;;;;;;12.10;7.82;;;;;;;3.54;100.00;101177.97;5008913;28;20109;-76
2024/02/27 07:17:58;;;;;;;16.92;9.80;;;;;;;3.67;100.00;101183.22;5007440;28;20088;-75
2024/02/27 07:20:25;;;;;;;12.85;8.50;;;;;;;3.48;100.00;101149.34;4990703;28;20030;-77
2024/02/27 07:22:50;;;;;;;14.80;8.85;;;;;;;3.32;100.00;101166.22;4999056;28;20115;-76
2024/02/27 07:25:15;;;;;;;13.45;8.23;;;;;;;3.63;100.00;101198.44;4998345;28;20493;-75
2024/02/27 07:27:41;;;;;;;13.23;8.80;;;;;;;3.60;100.00;101172.25;5008730;28;20484;-77
2024/02/27 07:30:07;;;;;;;14.20;8.85;;;;;;;3.51;100.00;101155.25;5002739;28;20049;-77
2024/02/27 07:32:32;;;;;;;13.38;8.88;;;;;;;3.63;100.00;101181.75;4993994;28;20061;-77
2024/02/27 07:34:57;;;;;;;13.05;9.07;;;;;;;3.53;100.00;101181.53;4990351;28;20485;-75
2024/02/27 07:37:23;;;;;;;13.82;9.43;;;;;;;3.47;100.00;101188.09;5006401;28;20041;-77
2024/02/27 07:39:48;;;;;;;12.25;8.30;;;;;;;3.46;100.00;101201.38;5011507;28;20112;-76
2024/02/27 07:42:14;;;;;;;14.02;8.80;;;;;;;3.53;100.00;101213.22;5007522;28;20049;-76
2024/02/27 07:44:39;;;;;;;16.52;9.00;;;;;;;3.68;100.00;101221.91;5008211;28;20044;-73
2024/02/27 07:47:05;;;;;;;15.53;9.23;;;;;;;3.75;100.00;101212.59;5008256;28;20072;-76
2024/02/27 07:49:30;;;;;;;12.55;8.48;;;;;;;3.68;100.00;101198.97;4998105;28;20300;-74
2024/02/27 07:51:55;;;;;;;21.13;10.35;;;;;;;3.77;100.00;101194.84;5007220;28;20057;-76
2024/02/27 07:54:22;;;;;;;15.90;10.68;;;;;;;3.82;100.00;101203.28;5006653;28;20039;-74
2024/02/27 07:56:47;;;;;;;;;;;;;;;3.54;100.00;101172.69;5008309;28;20030;-74
2024/02/27 07:59:12;;;;;;;14.75;9.20;;;;;;;3.77;100.00;101216.81;5003221;28;20399;-74
2024/02/27 08:01:38;;;;;;;13.50;9.32;;;;;;;3.83;100.00;101215.53;5008195;28;20026;-75
2024/02/27 08:04:04;;;;;;;14.05;9.10;;;;;;;3.82;100.00;101213.84;4982582;28;20039;-74
2024/02/27 08:06:30;;;;;;;12.88;8.65;;;;;;;4.04;100.00;101242.25;4990175;28;20085;-75
2024/02/27 08:08:56;;;;;;;15.23;9.20;;;;;;;4.02;100.00;101212.44;4989654;28;20026;-75
2024/02/27 08:11:22;;;;;;;10.13;7.43;;;;;;;3.79;100.00;101162.09;5006507;28;20117;-74
2024/02/27 08:13:47;;;;;;;12.73;8.57;;;;;;;4.02;100.00;101188.66;5000740;28;20041;-74
2024/02/27 08:16:13;;;;;;;14.85;8.65;;;;;;;3.95;100.00;101166.28;4992281;28;20524;-74
2024/02/27 08:18:38;;;;;;;14.55;9.50;;;;;;;4.21;100.00;101191.69;4992785;28;20034;-75
2024/02/27 08:21:04;;;;;;;13.80;8.65;;;;;;;4.29;100.00;101171.78;4998867;28;20054;-74
2024/02/27 08:23:30;;;;;;;10.25;6.55;;;;;;;4.46;100.00;101163.47;4996819;28;20034;-76
2024/02/27 08:25:56;;;;;;;11.27;7.78;;;;;;;4.50;100.00;101149.06;5000578;28;20033;-74
2024/02/27 08:28:22;;;;;;;9.75;6.80;;;;;;;4.60;100.00;101147.41;4999347;28;20033;-74
2024/02/27 08:30:48;;;;;;;;;;;;;;;4.69;100.00;101142.41;5002961;28;20080;-74
2024/02/27 08:33:13;;;;;;;14.85;7.97;;;;;;;4.46;100.00;101086.78;4991095;28;19953;-75
2024/02/27 08:35:38;;;;;;;10.10;6.82;;;;;;;4.36;100.00;101075.22;5006073;28;20322;-74
2024/02/27 08:38:04;;;;;;;10.43;6.35;;;;;;;4.50;100.00;101090.06;5000019;28;20032;-74
2024/02/27 08:40:31;;;;;;;11.20;7.83;;;;;;;4.49;100.00;101091.81;4993010;28;20061;-76
2024/02/27 08:42:57;;;;;;;11.88;7.55;;;;;;;4.54;100.00;101081.78;5002341;28;20300;-74
2024/02/27 08:45:22;;;;;;;11.45;7.38;;;;;;;4.55;100.00;101079.97;5002146;28;20600;-74
2024/02/27 08:47:49;;;;;;;11.43;7.28;;;;;;;4.62;100.00;101071.44;4999876;28;20066;-74
2024/02/27 08:50:14;;;;;;;10.30;6.63;;;;;;;4.55;100.00;101049.06;4995746;28;20156;-77
2024/02/27 08:52:40;;;;;;;13.25;6.95;;;;;;;4.49;100.00;101033.66;4995728;28;20441;-75
2024/02/27 08:55:06;;;;;;;10.45;6.93;;;;;;;4.28;100.00;100993.00;5011159;28;20473;-76
2024/02/27 08:57:32;;;;;;;9.40;6.00;;;;;;;4.21;100.00;100969.69;5006709;28;20042;-75
2024/02/27 08:59:57;;;;;;;8.88;5.80;;;;;;;4.26;100.00;100974.63;5006863;28;20092;-76
2024/02/27 09:02:23;;;;;;;10.98;6.30;;;;;;;4.55;100.00;101006.75;5002381;28;20398;-74
2024/02/27 09:04:49;;;;;;;;;;;;;;;4.55;100.00;100990.06;4994468;28;20457;-76
2024/02/27 09:07:14;;;;;;;7.13;5.13;;;;;;;3.67;100.00;100848.69;4999236;28;19925;-76
2024/02/27 09:09:43;;;;;;;5.82;4.68;;;;;;;4.08;100.00;100968.91;5013971;28;20044;-74
2024/02/27 09:12:09;;;;;;;5.55;4.25;;;;;;;4.28;100.00;100987.69;4983956;28;20314;-74
2024/02/27 09:14:35;;;;;;;13.93;4.35;;;;;;;4.59;100.00;100994.16;4998950;28;20104;-75
2024/02/27 09:17:00;;;;;;;;;;;;;;;4.62;100.00;100964.81;4999599;28;20096;-74
2024/02/27 09:19:26;;;;;;;6.78;4.75;;;;;;;4.37;100.00;100886.56;4994280;28;19926;-74
2024/02/27 09:21:52;;;;;;;7.90;4.03;;;;;;;4.43;100.00;100918.66;4990330;28;20041;-75
2024/02/27 09:24:18;;;;;;;;;;;;;;;4.55;100.00;100914.22;5000951;28;20556;-75
2024/02/27 09:26:43;;;;;;;5.82;4.25;;;;;;;4.71;100.00;100895.34;4991980;28;19948;-74
2024/02/27 09:29:09;;;;;;;8.38;4.53;;;;;;;4.80;100.00;100868.16;5006600;28;20169;-75
2024/02/27 09:31:34;;;;;;;8.57;5.30;;;;;;;4.84;100.00;100850.22;4998276;28;20065;-77
2024/02/27 09:33:59;;;;;;;6.35;5.30;;;;;;;4.86;100.00;100857.06;5005243;28;20029;-76
2024/02/27 09:36:28;;;;;;;11.48;6.35;;;;;;;4.80;100.00;100830.28;4986813;28;20489;-75
2024/02/27 09:38:53;;;;;;;8.63;6.32;;;;;;;4.87;100.00;100818.25;5003303;28;20588;-74
2024/02/27 09:41:28;;;;;;;12.45;7.28;;;;;;;4.61;100.00;100770.94;5005025;28;20037;-74
2024/02/27 09:43:55;;;;;;;10.98;6.90;;;;;;;5.01;100.00;100864.75;4986708;28;20034;-74
2024/02/27 09:46:22;;;;;;;10.05;7.20;;;;;;;5.06;100.00;100799.09;4992584;28;20730;-74
2024/02/27 09:48:54;;;;;;;11.57;6.43;;;;;;;5.19;100.00;100772.44;5001406;28;20041;-77
2024/02/27 09:51:22;;;;;;;8.13;5.68;;;;;;;5.43;100.00;100775.69;5000551;28;20034;-77
2024/02/27 09:53:49;;;;;;;8.05;5.57;;;;;;;5.53;100.00;100759.03;4994847;28;20026;-75
2024/02/27 09:56:15;;;;;;;8.25;5.18;;;;;;;5.41;100.00;100689.44;5004842;28;20457;-75
2024/02/27 09:58:44;;;;;;;7.20;5.32;;;;;;;5.17;100.00;100615.56;5005772;28;20037;-77
2024/02/27 10:01:15;;;;;;;6.72;5.00;;;;;;;5.54;100.00;100713.03;5005119;28;20460;-75
2024/02/27 10:03:46;;;;;;;7.28;5.30;;;;;;;5.64;100.00;100671.53;5004717;28;20038;-75
2024/02/27 10:06:14;;;;;;;7.50;5.25;;;;;;;5.62;100.00;100609.91;5004166;28;20037;-75
2024/02/27 10:08:46;;;;;;;8.82;6.18;;;;;;;5.46;100.00;100583.94;4991852;28;20073;-75
2024/02/27 10:11:12;;;;;;;6.75;5.28;;;;;;;5.64;100.00;100634.47;5005783;28;20499;-75
2024/02/27 10:13:38;;;;;;;7.35;5.97;;;;;;;5.38;100.00;100610.22;5004779;28;20026;-74
2024/02/27 10:16:04;;;;;;;11.38;5.78;;;;;;;5.64;100.00;100676.84;4988132;28;20591;-74
2024/02/27 10:18:31;;;;;;;7.07;5.85;;;;;;;5.58;100.00;100641.13;5005861;28;20141;-76
2024/02/27 10:20:56;;;;;;;8.32;6.45;;;;;;;5.63;100.00;100622.19;4996440;28;20069;-77
2024/02/27 10:23:22;;;;;;;9.35;5.72;;;;;;;5.68;100.00;100612.03;5000663;28;20072;-74
2024/02/27 10:25:48;;;;;;;10.53;6.57;;;;;;;5.37;100.00;100513.25;5004399;28;20088;-74
2024/02/27 10:28:19;;;;;;;9.13;5.70;;;;;;;5.64;100.00;100531.16;4997220;28;20026;-76
2024/02/27 10:30:45;;;;;;;8.30;5.53;;;;;;;5.94;100.00;100535.56;4997102;28;20063;-75
2024/02/27 10:33:13;;;;;;;8.18;5.68;;;;;;;6.21;100.00;100500.44;5004314;28;20045;-75
2024/02/27 10:35:42;;;;;;;7.45;4.80;;;;;;;6.27;100.00;100452.13;4998795;28;20033;-77
2024/02/27 10:38:14;;;;;;;5.90;5.13;;;;;;;6.08;100.00;100388.56;4987478;28;20489;-75
2024/02/27 10:40:40;;;;;;;6.35;4.97;;;;;;;6.34;100.00;100513.41;5005414;28;20481;-74
2024/02/27 10:43:06;;;;;;;6.63;4.67;;;;;;;6.48;100.00;100506.81;4987532;28;20041;-74
2024/02/27 10:45:34;;;;;;;5.50;4.65;;;;;;;6.61;100.00;100480.03;5004836;28;20740;-75
2024/02/27 10:48:00;;;;;;;7.05;4.80;;;;;;;6.52;100.00;100489.66;5000252;28;20050;-77
2024/02/27 10:50:27;;;;;;;6.80;4.93;;;;;;;6.13;100.00;100403.06;4981890;28;20030;-77
2024/02/27 10:52:55;;;;;;;7.15;5.07;;;;;;;6.36;100.00;100436.38;5006203;28;20544;-77
2024/02/27 10:55:23;;;;;;;8.82;5.75;;;;;;;6.14;100.00;100335.00;4986619;28;20049;-77
2024/02/27 10:57:48;;;;;;;6.18;4.53;;;;;;;6.32;100.00;100417.25;4999282;28;20750;-77
2024/02/27 11:00:15;;;;;;;6.50;3.95;;;;;;;5.98;100.00;100327.63;5004752;28;20117;-75
2024/02/27 11:02:46;;;;;;;7.47;5.07;;;;;;;6.36;100.00;100460.25;4998582;28;20041;-77
2024/02/27 11:05:11;;;;;;;6.93;5.15;;;;;;;6.45;100.00;100470.00;4992745;28;20092;-75
2024/02/27 11:07:38;;;;;;;6.45;4.53;;;;;;;6.49;100.00;100407.75;5005757;28;20022;-76
2024/02/27 11:10:05;;;;;;;6.00;4.38;;;;;;;6.54;100.00;100387.75;5005009;28;20615;-77
2024/02/27 11:12:35;;;;;;;5.57;4.30;;;;;;;6.50;100.00;100329.84;5009194;28;20113;-77